sensor_id;sensor_type;location;lat;lon;timestamp;temperature;humidity
20973;DHT22;10645;52.370;13.314;2022-12-11T00:01:27;-2.00;99.90
20973;DHT22;10645;52.370;13.314;2022-12-11T00:03:53;-2.00;99.90
20973;DHT22;10645;52.370;13.314;2022-12-11T00:06:22;-1.90;99.90
20973;DHT22;10645;52.370;13.314;2022-12-11T00:08:52;-2.00;99.90
20973;DHT22;10645;52.370;13.314;2022-12-11T00:11:19;-2.00;99.90
20973;DHT22;10645;52.370;13.314;2022-12-11T00:13:46;-2.00;99.90
20973;DHT22;10645;52.370;13.314;2022-12-11T00:16:12;-2.00;99.90
20973;DHT22;10645;52.370;13.314;2022-12-11T00:18:39;-2.00;99.90
20973;DHT22;10645;52.370;13.314;2022-12-11T00:21:07;-1.90;99.90
20973;DHT22;10645;52.370;13.314;2022-12-11T00:23:34;-1.90;99.90
20973;DHT22;10645;52.370;13.314;2022-12-11T00:26:04;-1.90;99.90
20973;DHT22;10645;52.370;13.314;2022-12-11T00:28:32;-2.00;99.90
20973;DHT22;10645;52.370;13.314;2022-12-11T00:30:58;-1.90;99.90
20973;DHT22;10645;52.370;13.314;2022-12-11T00:33:25;-1.90;99.90
20973;DHT22;10645;52.370;13.314;2022-12-11T00:35:51;-1.90;99.90
20973;DHT22;10645;52.370;13.314;2022-12-11T00:38:20;-1.90;99.90
20973;DHT22;10645;52.370;13.314;2022-12-11T00:40:47;-1.90;99.90
20973;DHT22;10645;52.370;13.314;2022-12-11T00:43:14;-1.80;99.90
20973;DHT22;10645;52.370;13.314;2022-12-11T00:45:42;-1.80;99.90
20973;DHT22;10645;52.370;13.314;2022-12-11T00:48:09;-1.80;99.90
20973;DHT22;10645;52.370;13.314;2022-12-11T00:50:36;-1.80;99.90
20973;DHT22;10645;52.370;13.314;2022-12-11T00:53:03;-1.80;99.90
20973;DHT22;10645;52.370;13.314;2022-12-11T00:55:29;-1.80;99.90
20973;DHT22;10645;52.370;13.314;2022-12-11T00:57:55;-1.80;99.90
20973;DHT22;10645;52.370;13.314;2022-12-11T01:00:23;-1.80;99.90
20973;DHT22;10645;52.370;13.314;2022-12-11T01:02:49;-1.80;99.90
20973;DHT22;10645;52.370;13.314;2022-12-11T01:05:16;-1.80;99.90
20973;DHT22;10645;52.370;13.314;2022-12-11T01:07:42;-1.90;99.90
20973;DHT22;10645;52.370;13.314;2022-12-11T01:10:11;-1.90;99.90
20973;DHT22;10645;52.370;13.314;2022-12-11T01:12:58;-1.90;99.90
20973;DHT22;10645;52.370;13.314;2022-12-11T01:15:27;-1.90;99.90
20973;DHT22;10645;52.370;13.314;2022-12-11T01:17:53;-1.90;99.90
20973;DHT22;10645;52.370;13.314;2022-12-11T01:20:21;-1.90;99.90
20973;DHT22;10645;52.370;13.314;2022-12-11T01:22:47;-1.90;99.90
20973;DHT22;10645;52.370;13.314;2022-12-11T01:25:16;-1.90;99.90
20973;DHT22;10645;52.370;13.314;2022-12-11T01:27:42;-1.90;99.90
20973;DHT22;10645;52.370;13.314;2022-12-11T01:30:09;-1.90;99.90
20973;DHT22;10645;52.370;13.314;2022-12-11T01:32:35;-1.90;99.90
20973;DHT22;10645;52.370;13.314;2022-12-11T01:35:03;-1.90;99.90
20973;DHT22;10645;52.370;13.314;2022-12-11T01:37:29;-1.90;99.90
20973;DHT22;10645;52.370;13.314;2022-12-11T01:39:56;-1.90;99.90
20973;DHT22;10645;52.370;13.314;2022-12-11T01:42:22;-1.90;99.90
20973;DHT22;10645;52.370;13.314;2022-12-11T01:47:16;-1.90;99.90
20973;DHT22;10645;52.370;13.314;2022-12-11T01:49:42;-1.90;99.90
20973;DHT22;10645;52.370;13.314;2022-12-11T01:52:15;-1.90;99.90
20973;DHT22;10645;52.370;13.314;2022-12-11T01:54:44;-1.90;99.90
20973;DHT22;10645;52.370;13.314;2022-12-11T01:57:12;-1.90;99.90
20973;DHT22;10645;52.370;13.314;2022-12-11T01:59:43;-1.90;99.90
20973;DHT22;10645;52.370;13.314;2022-12-11T02:02:21;-1.90;99.90
20973;DHT22;10645;52.370;13.314;2022-12-11T02:04:49;-1.90;99.90
20973;DHT22;10645;52.370;13.314;2022-12-11T02:07:15;-1.90;99.90
20973;DHT22;10645;52.370;13.314;2022-12-11T02:09:43;-1.90;99.90
20973;DHT22;10645;52.370;13.314;2022-12-11T02:12:40;-1.90;99.90
20973;DHT22;10645;52.370;13.314;2022-12-11T02:18:03;-1.90;99.90
20973;DHT22;10645;52.370;13.314;2022-12-11T02:20:58;-1.90;99.90
20973;DHT22;10645;52.370;13.314;2022-12-11T02:23:46;-1.80;99.90
20973;DHT22;10645;52.370;13.314;2022-12-11T02:29:02;-1.80;99.90
20973;DHT22;10645;52.370;13.314;2022-12-11T02:31:38;-1.80;99.90
20973;DHT22;10645;52.370;13.314;2022-12-11T02:34:27;-1.80;99.90
20973;DHT22;10645;52.370;13.314;2022-12-11T02:36:58;-1.80;99.90
20973;DHT22;10645;52.370;13.314;2022-12-11T02:39:26;-1.80;99.90
20973;DHT22;10645;52.370;13.314;2022-12-11T02:41:54;-1.80;99.90
20973;DHT22;10645;52.370;13.314;2022-12-11T02:44:23;-1.80;99.90
20973;DHT22;10645;52.370;13.314;2022-12-11T02:46:51;-1.80;99.90
20973;DHT22;10645;52.370;13.314;2022-12-11T02:49:19;-1.80;99.90
20973;DHT22;10645;52.370;13.314;2022-12-11T02:51:46;-1.80;99.90
20973;DHT22;10645;52.370;13.314;2022-12-11T02:54:20;-1.80;99.90
20973;DHT22;10645;52.370;13.314;2022-12-11T02:57:02;-1.80;99.90
20973;DHT22;10645;52.370;13.314;2022-12-11T02:59:35;-1.80;99.90
20973;DHT22;10645;52.370;13.314;2022-12-11T03:02:02;-1.90;99.90
20973;DHT22;10645;52.370;13.314;2022-12-11T03:04:29;-1.90;99.90
20973;DHT22;10645;52.370;13.314;2022-12-11T03:07:00;-1.80;99.90
20973;DHT22;10645;52.370;13.314;2022-12-11T03:09:27;-1.90;99.90
20973;DHT22;10645;52.370;13.314;2022-12-11T03:11:54;-1.90;99.90
20973;DHT22;10645;52.370;13.314;2022-12-11T03:14:20;-1.90;99.90
20973;DHT22;10645;52.370;13.314;2022-12-11T03:17:07;-1.80;99.90
20973;DHT22;10645;52.370;13.314;2022-12-11T03:19:39;-1.80;99.90
20973;DHT22;10645;52.370;13.314;2022-12-11T03:22:19;-1.80;99.90
20973;DHT22;10645;52.370;13.314;2022-12-11T03:24:51;-1.80;99.90
20973;DHT22;10645;52.370;13.314;2022-12-11T03:27:33;-1.80;99.90
20973;DHT22;10645;52.370;13.314;2022-12-11T03:30:13;-1.80;99.90
20973;DHT22;10645;52.370;13.314;2022-12-11T03:32:50;-1.80;99.90
20973;DHT22;10645;52.370;13.314;2022-12-11T03:35:30;-1.80;99.90
20973;DHT22;10645;52.370;13.314;2022-12-11T03:38:05;-1.80;99.90
20973;DHT22;10645;52.370;13.314;2022-12-11T03:40:33;-1.80;99.90
20973;DHT22;10645;52.370;13.314;2022-12-11T03:43:02;-1.80;99.90
20973;DHT22;10645;52.370;13.314;2022-12-11T03:45:30;-1.90;99.90
20973;DHT22;10645;52.370;13.314;2022-12-11T03:47:59;-1.80;99.90
20973;DHT22;10645;52.370;13.314;2022-12-11T03:50:29;-1.90;99.90
20973;DHT22;10645;52.370;13.314;2022-12-11T03:52:57;-1.80;99.90
20973;DHT22;10645;52.370;13.314;2022-12-11T03:55:25;-1.80;99.90
20973;DHT22;10645;52.370;13.314;2022-12-11T03:57:52;-1.80;99.90
20973;DHT22;10645;52.370;13.314;2022-12-11T04:00:19;-1.80;99.90
20973;DHT22;10645;52.370;13.314;2022-12-11T04:02:46;-1.80;99.90
20973;DHT22;10645;52.370;13.314;2022-12-11T04:05:35;-1.90;99.90
20973;DHT22;10645;52.370;13.314;2022-12-11T04:08:01;-1.90;99.90
20973;DHT22;10645;52.370;13.314;2022-12-11T04:10:27;-1.90;99.90
20973;DHT22;10645;52.370;13.314;2022-12-11T04:12:53;-1.90;99.90
20973;DHT22;10645;52.370;13.314;2022-12-11T04:15:19;-1.80;99.90
20973;DHT22;10645;52.370;13.314;2022-12-11T04:17:45;-1.90;99.90
20973;DHT22;10645;52.370;13.314;2022-12-11T04:20:30;-1.90;99.90
20973;DHT22;10645;52.370;13.314;2022-12-11T04:23:17;-1.90;99.90
20973;DHT22;10645;52.370;13.314;2022-12-11T04:28:33;-1.90;99.90
20973;DHT22;10645;52.370;13.314;2022-12-11T04:30:59;-2.00;99.90
20973;DHT22;10645;52.370;13.314;2022-12-11T04:33:26;-1.90;99.90
20973;DHT22;10645;52.370;13.314;2022-12-11T04:35:53;-1.90;99.90
20973;DHT22;10645;52.370;13.314;2022-12-11T04:38:21;-1.90;99.90
20973;DHT22;10645;52.370;13.314;2022-12-11T04:40:48;-1.90;99.90
20973;DHT22;10645;52.370;13.314;2022-12-11T04:43:14;-1.90;99.90
20973;DHT22;10645;52.370;13.314;2022-12-11T04:45:40;-1.90;99.90
20973;DHT22;10645;52.370;13.314;2022-12-11T04:48:06;-1.90;99.90
20973;DHT22;10645;52.370;13.314;2022-12-11T04:50:32;-1.80;99.90
20973;DHT22;10645;52.370;13.314;2022-12-11T04:52:58;-1.80;99.90
20973;DHT22;10645;52.370;13.314;2022-12-11T04:55:24;-1.80;99.90
20973;DHT22;10645;52.370;13.314;2022-12-11T04:57:50;-1.80;99.90
20973;DHT22;10645;52.370;13.314;2022-12-11T05:00:16;-1.80;99.90
20973;DHT22;10645;52.370;13.314;2022-12-11T05:02:42;-1.80;99.90
20973;DHT22;10645;52.370;13.314;2022-12-11T05:05:09;-1.80;99.90
20973;DHT22;10645;52.370;13.314;2022-12-11T05:07:36;-1.80;99.90
20973;DHT22;10645;52.370;13.314;2022-12-11T05:10:03;-1.80;99.90
20973;DHT22;10645;52.370;13.314;2022-12-11T05:12:31;-1.80;99.90
20973;DHT22;10645;52.370;13.314;2022-12-11T05:14:57;-1.80;99.90
20973;DHT22;10645;52.370;13.314;2022-12-11T05:17:23;-1.80;99.90
20973;DHT22;10645;52.370;13.314;2022-12-11T05:19:50;-1.80;99.90
20973;DHT22;10645;52.370;13.314;2022-12-11T05:22:17;-1.80;99.90
20973;DHT22;10645;52.370;13.314;2022-12-11T05:24:44;-1.80;99.90
20973;DHT22;10645;52.370;13.314;2022-12-11T05:27:10;-1.80;99.90
20973;DHT22;10645;52.370;13.314;2022-12-11T05:29:37;-1.80;99.90
20973;DHT22;10645;52.370;13.314;2022-12-11T05:32:03;-1.80;99.90
20973;DHT22;10645;52.370;13.314;2022-12-11T05:34:29;-1.80;99.90
20973;DHT22;10645;52.370;13.314;2022-12-11T05:36:55;-1.90;99.90
20973;DHT22;10645;52.370;13.314;2022-12-11T05:39:21;-1.90;99.90
20973;DHT22;10645;52.370;13.314;2022-12-11T05:41:47;-1.90;99.90
20973;DHT22;10645;52.370;13.314;2022-12-11T05:44:14;-1.90;99.90
20973;DHT22;10645;52.370;13.314;2022-12-11T05:46:40;-1.90;99.90
20973;DHT22;10645;52.370;13.314;2022-12-11T05:49:06;-1.90;99.90
20973;DHT22;10645;52.370;13.314;2022-12-11T05:51:33;-1.90;99.90
20973;DHT22;10645;52.370;13.314;2022-12-11T05:54:00;-1.90;99.90
20973;DHT22;10645;52.370;13.314;2022-12-11T05:56:29;-1.90;99.90
20973;DHT22;10645;52.370;13.314;2022-12-11T05:58:56;-1.90;99.90
20973;DHT22;10645;52.370;13.314;2022-12-11T06:01:40;-1.90;99.90
20973;DHT22;10645;52.370;13.314;2022-12-11T06:04:07;-1.90;99.90
20973;DHT22;10645;52.370;13.314;2022-12-11T06:06:34;-1.90;99.90
20973;DHT22;10645;52.370;13.314;2022-12-11T06:09:00;-1.90;99.90
20973;DHT22;10645;52.370;13.314;2022-12-11T06:11:28;-1.90;99.90
20973;DHT22;10645;52.370;13.314;2022-12-11T06:13:55;-1.90;99.90
20973;DHT22;10645;52.370;13.314;2022-12-11T06:16:22;-1.90;99.90
20973;DHT22;10645;52.370;13.314;2022-12-11T06:18:48;-1.90;99.90
20973;DHT22;10645;52.370;13.314;2022-12-11T06:21:17;-1.90;99.90
20973;DHT22;10645;52.370;13.314;2022-12-11T06:23:45;-1.90;99.90
20973;DHT22;10645;52.370;13.314;2022-12-11T06:26:13;-1.90;99.90
20973;DHT22;10645;52.370;13.314;2022-12-11T06:28:40;-1.90;99.90
20973;DHT22;10645;52.370;13.314;2022-12-11T06:31:06;-1.90;99.90
20973;DHT22;10645;52.370;13.314;2022-12-11T06:33:33;-2.00;99.90
20973;DHT22;10645;52.370;13.314;2022-12-11T06:36:03;-1.90;99.90
20973;DHT22;10645;52.370;13.314;2022-12-11T06:38:30;-1.90;99.90
20973;DHT22;10645;52.370;13.314;2022-12-11T06:40:57;-1.90;99.90
20973;DHT22;10645;52.370;13.314;2022-12-11T06:43:24;-1.90;99.90
20973;DHT22;10645;52.370;13.314;2022-12-11T06:45:51;-1.90;99.90
20973;DHT22;10645;52.370;13.314;2022-12-11T06:48:18;-1.90;99.90
20973;DHT22;10645;52.370;13.314;2022-12-11T06:50:44;-1.90;99.90
20973;DHT22;10645;52.370;13.314;2022-12-11T06:53:12;-1.90;99.90
20973;DHT22;10645;52.370;13.314;2022-12-11T06:55:38;-1.80;99.90
20973;DHT22;10645;52.370;13.314;2022-12-11T06:58:04;-1.80;99.90
20973;DHT22;10645;52.370;13.314;2022-12-11T07:00:30;-1.80;99.90
20973;DHT22;10645;52.370;13.314;2022-12-11T07:02:56;-1.80;99.90
20973;DHT22;10645;52.370;13.314;2022-12-11T07:05:22;-1.80;99.90
20973;DHT22;10645;52.370;13.314;2022-12-11T07:07:48;-1.80;99.90
20973;DHT22;10645;52.370;13.314;2022-12-11T07:10:14;-1.80;99.90
20973;DHT22;10645;52.370;13.314;2022-12-11T07:12:41;-1.80;99.90
20973;DHT22;10645;52.370;13.314;2022-12-11T07:15:07;-1.90;99.90
20973;DHT22;10645;52.370;13.314;2022-12-11T07:17:33;-1.80;99.90
20973;DHT22;10645;52.370;13.314;2022-12-11T07:19:59;-1.90;99.90
20973;DHT22;10645;52.370;13.314;2022-12-11T07:22:25;-1.90;99.90
20973;DHT22;10645;52.370;13.314;2022-12-11T07:24:51;-1.90;99.90
20973;DHT22;10645;52.370;13.314;2022-12-11T07:27:17;-1.80;99.90
20973;DHT22;10645;52.370;13.314;2022-12-11T07:29:43;-1.90;99.90
20973;DHT22;10645;52.370;13.314;2022-12-11T07:32:09;-1.90;99.90
20973;DHT22;10645;52.370;13.314;2022-12-11T07:34:36;-1.80;99.90
20973;DHT22;10645;52.370;13.314;2022-12-11T07:37:02;-1.90;99.90
20973;DHT22;10645;52.370;13.314;2022-12-11T07:39:28;-1.90;99.90
20973;DHT22;10645;52.370;13.314;2022-12-11T07:41:54;-1.90;99.90
20973;DHT22;10645;52.370;13.314;2022-12-11T07:44:20;-1.90;99.90
20973;DHT22;10645;52.370;13.314;2022-12-11T07:46:46;-1.90;99.90
20973;DHT22;10645;52.370;13.314;2022-12-11T07:49:12;-2.00;99.90
20973;DHT22;10645;52.370;13.314;2022-12-11T07:51:39;-2.00;99.90
20973;DHT22;10645;52.370;13.314;2022-12-11T07:54:09;-2.00;99.90
20973;DHT22;10645;52.370;13.314;2022-12-11T07:56:36;-2.00;99.90
20973;DHT22;10645;52.370;13.314;2022-12-11T07:59:04;-1.90;99.90
20973;DHT22;10645;52.370;13.314;2022-12-11T08:01:32;-1.90;99.90
20973;DHT22;10645;52.370;13.314;2022-12-11T08:04:00;-2.00;99.90
20973;DHT22;10645;52.370;13.314;2022-12-11T08:06:28;-2.00;99.90
20973;DHT22;10645;52.370;13.314;2022-12-11T08:08:56;-2.00;99.90
20973;DHT22;10645;52.370;13.314;2022-12-11T08:11:23;-1.90;99.90
20973;DHT22;10645;52.370;13.314;2022-12-11T08:13:49;-2.00;99.90
20973;DHT22;10645;52.370;13.314;2022-12-11T08:16:16;-1.90;99.90
20973;DHT22;10645;52.370;13.314;2022-12-11T08:18:43;-2.00;99.90
20973;DHT22;10645;52.370;13.314;2022-12-11T08:21:12;-2.00;99.90
20973;DHT22;10645;52.370;13.314;2022-12-11T08:23:39;-1.90;99.90
20973;DHT22;10645;52.370;13.314;2022-12-11T08:26:06;-2.00;99.90
20973;DHT22;10645;52.370;13.314;2022-12-11T08:28:33;-1.90;99.90
20973;DHT22;10645;52.370;13.314;2022-12-11T08:31:03;-1.90;99.90
20973;DHT22;10645;52.370;13.314;2022-12-11T08:33:29;-1.90;99.90
20973;DHT22;10645;52.370;13.314;2022-12-11T08:35:55;-1.80;99.90
20973;DHT22;10645;52.370;13.314;2022-12-11T08:38:21;-1.90;99.90
20973;DHT22;10645;52.370;13.314;2022-12-11T08:40:48;-1.90;99.90
20973;DHT22;10645;52.370;13.314;2022-12-11T08:43:14;-1.80;99.90
20973;DHT22;10645;52.370;13.314;2022-12-11T08:45:40;-1.80;99.90
20973;DHT22;10645;52.370;13.314;2022-12-11T08:48:06;-1.80;99.90
20973;DHT22;10645;52.370;13.314;2022-12-11T08:50:32;-1.80;99.90
20973;DHT22;10645;52.370;13.314;2022-12-11T08:52:58;-1.80;99.90
20973;DHT22;10645;52.370;13.314;2022-12-11T08:55:24;-1.90;99.90
20973;DHT22;10645;52.370;13.314;2022-12-11T08:57:50;-1.80;99.90
20973;DHT22;10645;52.370;13.314;2022-12-11T09:00:16;-1.80;99.90
20973;DHT22;10645;52.370;13.314;2022-12-11T09:02:43;-1.90;99.90
20973;DHT22;10645;52.370;13.314;2022-12-11T09:05:09;-1.90;99.90
20973;DHT22;10645;52.370;13.314;2022-12-11T09:07:36;-1.80;99.90
20973;DHT22;10645;52.370;13.314;2022-12-11T09:10:05;-1.80;99.90
20973;DHT22;10645;52.370;13.314;2022-12-11T09:12:33;-1.70;99.90
20973;DHT22;10645;52.370;13.314;2022-12-11T09:14:59;-1.70;99.90
20973;DHT22;10645;52.370;13.314;2022-12-11T09:17:25;-1.60;99.90
20973;DHT22;10645;52.370;13.314;2022-12-11T09:19:51;-1.60;99.90
20973;DHT22;10645;52.370;13.314;2022-12-11T09:22:17;-1.60;99.90
20973;DHT22;10645;52.370;13.314;2022-12-11T09:24:44;-1.60;99.90
20973;DHT22;10645;52.370;13.314;2022-12-11T09:27:11;-1.50;99.90
20973;DHT22;10645;52.370;13.314;2022-12-11T09:29:38;-1.60;99.90
20973;DHT22;10645;52.370;13.314;2022-12-11T09:32:04;-1.60;99.90
20973;DHT22;10645;52.370;13.314;2022-12-11T09:34:30;-1.60;99.90
20973;DHT22;10645;52.370;13.314;2022-12-11T09:36:56;-1.60;99.90
20973;DHT22;10645;52.370;13.314;2022-12-11T09:39:23;-1.60;99.90
20973;DHT22;10645;52.370;13.314;2022-12-11T09:42:11;-1.60;99.90
20973;DHT22;10645;52.370;13.314;2022-12-11T09:44:54;-1.60;99.90
20973;DHT22;10645;52.370;13.314;2022-12-11T09:47:33;-1.60;99.90
20973;DHT22;10645;52.370;13.314;2022-12-11T09:50:11;-1.60;99.90
20973;DHT22;10645;52.370;13.314;2022-12-11T09:58:41;-1.60;99.90
20973;DHT22;10645;52.370;13.314;2022-12-11T10:01:25;-1.60;99.90
20973;DHT22;10645;52.370;13.314;2022-12-11T10:04:17;-1.60;99.90
20973;DHT22;10645;52.370;13.314;2022-12-11T10:07:10;-1.60;99.90
20973;DHT22;10645;52.370;13.314;2022-12-11T10:09:50;-1.50;99.90
20973;DHT22;10645;52.370;13.314;2022-12-11T10:15:25;-1.50;99.90
20973;DHT22;10645;52.370;13.314;2022-12-11T10:17:55;-1.50;99.90
20973;DHT22;10645;52.370;13.314;2022-12-11T10:20:31;-1.60;99.90
20973;DHT22;10645;52.370;13.314;2022-12-11T10:23:03;-1.50;99.90
20973;DHT22;10645;52.370;13.314;2022-12-11T10:25:34;-1.50;99.90
20973;DHT22;10645;52.370;13.314;2022-12-11T10:28:16;-1.50;99.90
20973;DHT22;10645;52.370;13.314;2022-12-11T10:36:49;-1.30;99.90
20973;DHT22;10645;52.370;13.314;2022-12-11T10:39:18;-1.20;99.90
20973;DHT22;10645;52.370;13.314;2022-12-11T10:41:46;-1.20;99.90
20973;DHT22;10645;52.370;13.314;2022-12-11T10:46:45;-1.30;99.90
20973;DHT22;10645;52.370;13.314;2022-12-11T10:49:41;-1.20;99.90
20973;DHT22;10645;52.370;13.314;2022-12-11T10:52:18;-1.20;99.90
20973;DHT22;10645;52.370;13.314;2022-12-11T10:54:46;-1.20;99.90
20973;DHT22;10645;52.370;13.314;2022-12-11T10:57:14;-1.20;99.90
20973;DHT22;10645;52.370;13.314;2022-12-11T10:59:45;-1.20;99.90
20973;DHT22;10645;52.370;13.314;2022-12-11T11:02:29;-1.30;99.90
20973;DHT22;10645;52.370;13.314;2022-12-11T11:05:00;-1.30;99.90
20973;DHT22;10645;52.370;13.314;2022-12-11T11:07:35;-1.20;99.90
20973;DHT22;10645;52.370;13.314;2022-12-11T11:12:45;-1.20;99.90
20973;DHT22;10645;52.370;13.314;2022-12-11T11:15:14;-1.30;99.90
20973;DHT22;10645;52.370;13.314;2022-12-11T11:17:46;-1.30;99.90
20973;DHT22;10645;52.370;13.314;2022-12-11T11:20:17;-1.30;99.90
20973;DHT22;10645;52.370;13.314;2022-12-11T11:22:46;-1.30;99.90
20973;DHT22;10645;52.370;13.314;2022-12-11T11:25:20;-1.30;99.90
20973;DHT22;10645;52.370;13.314;2022-12-11T11:27:55;-1.30;99.90
20973;DHT22;10645;52.370;13.314;2022-12-11T11:30:34;-1.30;99.90
20973;DHT22;10645;52.370;13.314;2022-12-11T11:33:03;-1.20;99.90
20973;DHT22;10645;52.370;13.314;2022-12-11T11:35:31;-1.20;99.90
20973;DHT22;10645;52.370;13.314;2022-12-11T11:38:18;-1.20;99.90
20973;DHT22;10645;52.370;13.314;2022-12-11T11:41:02;-1.20;99.90
20973;DHT22;10645;52.370;13.314;2022-12-11T11:43:37;-1.20;99.90
20973;DHT22;10645;52.370;13.314;2022-12-11T11:46:16;-1.10;99.90
20973;DHT22;10645;52.370;13.314;2022-12-11T11:49:05;-1.10;99.90
20973;DHT22;10645;52.370;13.314;2022-12-11T11:51:38;-1.10;99.90
20973;DHT22;10645;52.370;13.314;2022-12-11T11:57:21;-1.10;99.90
20973;DHT22;10645;52.370;13.314;2022-12-11T12:00:00;-1.20;99.90
20973;DHT22;10645;52.370;13.314;2022-12-11T12:02:40;-1.20;99.90
20973;DHT22;10645;52.370;13.314;2022-12-11T12:05:12;-1.20;99.90
20973;DHT22;10645;52.370;13.314;2022-12-11T12:08:04;-1.30;99.90
20973;DHT22;10645;52.370;13.314;2022-12-11T12:11:00;-1.30;99.90
20973;DHT22;10645;52.370;13.314;2022-12-11T12:13:42;-1.30;99.90
20973;DHT22;10645;52.370;13.314;2022-12-11T12:19:16;-1.20;99.90
20973;DHT22;10645;52.370;13.314;2022-12-11T12:21:47;-1.10;99.90
20973;DHT22;10645;52.370;13.314;2022-12-11T12:24:42;-1.10;99.90
20973;DHT22;10645;52.370;13.314;2022-12-11T12:27:20;-1.10;99.90
20973;DHT22;10645;52.370;13.314;2022-12-11T12:32:26;-1.00;99.90
20973;DHT22;10645;52.370;13.314;2022-12-11T12:40:49;-1.10;99.90
20973;DHT22;10645;52.370;13.314;2022-12-11T12:46:45;-1.20;99.90
20973;DHT22;10645;52.370;13.314;2022-12-11T12:49:18;-1.10;99.90
20973;DHT22;10645;52.370;13.314;2022-12-11T12:51:49;-1.00;99.90
20973;DHT22;10645;52.370;13.314;2022-12-11T12:54:16;-0.90;99.90
20973;DHT22;10645;52.370;13.314;2022-12-11T12:56:45;-0.90;99.90
20973;DHT22;10645;52.370;13.314;2022-12-11T12:59:26;-1.00;99.90
20973;DHT22;10645;52.370;13.314;2022-12-11T13:01:58;-1.00;99.90
20973;DHT22;10645;52.370;13.314;2022-12-11T13:04:37;-0.90;99.90
20973;DHT22;10645;52.370;13.314;2022-12-11T13:07:12;-0.90;99.90
20973;DHT22;10645;52.370;13.314;2022-12-11T13:09:40;-0.90;99.90
20973;DHT22;10645;52.370;13.314;2022-12-11T13:12:14;-0.90;99.90
20973;DHT22;10645;52.370;13.314;2022-12-11T13:14:41;-0.90;99.90
20973;DHT22;10645;52.370;13.314;2022-12-11T13:19:47;-0.90;99.90
20973;DHT22;10645;52.370;13.314;2022-12-11T13:25:00;-1.00;99.90
20973;DHT22;10645;52.370;13.314;2022-12-11T13:27:39;-1.00;99.90
20973;DHT22;10645;52.370;13.314;2022-12-11T13:32:42;-1.00;99.90
20973;DHT22;10645;52.370;13.314;2022-12-11T13:35:15;-1.00;99.90
20973;DHT22;10645;52.370;13.314;2022-12-11T13:37:43;-1.10;99.90
20973;DHT22;10645;52.370;13.314;2022-12-11T13:40:21;-1.10;99.90
20973;DHT22;10645;52.370;13.314;2022-12-11T13:42:53;-1.10;99.90
20973;DHT22;10645;52.370;13.314;2022-12-11T13:45:38;-1.10;99.90
20973;DHT22;10645;52.370;13.314;2022-12-11T13:48:18;-1.10;99.90
20973;DHT22;10645;52.370;13.314;2022-12-11T13:50:44;-1.10;99.90
20973;DHT22;10645;52.370;13.314;2022-12-11T13:53:16;-1.10;99.90
20973;DHT22;10645;52.370;13.314;2022-12-11T13:55:43;-1.10;99.90
20973;DHT22;10645;52.370;13.314;2022-12-11T13:58:21;-1.20;99.90
20973;DHT22;10645;52.370;13.314;2022-12-11T14:01:19;-1.20;99.90
20973;DHT22;10645;52.370;13.314;2022-12-11T14:04:07;-1.20;99.90
20973;DHT22;10645;52.370;13.314;2022-12-11T14:06:35;-1.20;99.90
20973;DHT22;10645;52.370;13.314;2022-12-11T14:09:03;-1.20;99.90
20973;DHT22;10645;52.370;13.314;2022-12-11T14:11:34;-1.30;99.90
20973;DHT22;10645;52.370;13.314;2022-12-11T14:14:03;-1.30;99.90
20973;DHT22;10645;52.370;13.314;2022-12-11T14:16:29;-1.30;99.90
20973;DHT22;10645;52.370;13.314;2022-12-11T14:19:02;-1.20;99.90
20973;DHT22;10645;52.370;13.314;2022-12-11T14:21:29;-1.20;99.90
20973;DHT22;10645;52.370;13.314;2022-12-11T14:24:01;-1.20;99.90
20973;DHT22;10645;52.370;13.314;2022-12-11T14:26:33;-1.20;99.90
20973;DHT22;10645;52.370;13.314;2022-12-11T14:28:59;-1.20;99.90
20973;DHT22;10645;52.370;13.314;2022-12-11T14:31:40;-1.20;99.90
20973;DHT22;10645;52.370;13.314;2022-12-11T14:34:14;-1.30;99.90
20973;DHT22;10645;52.370;13.314;2022-12-11T14:36:42;-1.30;99.90
20973;DHT22;10645;52.370;13.314;2022-12-11T14:39:13;-1.30;99.90
20973;DHT22;10645;52.370;13.314;2022-12-11T14:41:56;-1.40;99.90
20973;DHT22;10645;52.370;13.314;2022-12-11T14:44:27;-1.40;99.90
20973;DHT22;10645;52.370;13.314;2022-12-11T14:46:58;-1.40;99.90
20973;DHT22;10645;52.370;13.314;2022-12-11T14:52:03;-1.40;99.90
20973;DHT22;10645;52.370;13.314;2022-12-11T14:54:41;-1.40;99.90
20973;DHT22;10645;52.370;13.314;2022-12-11T14:57:18;-1.40;99.90
20973;DHT22;10645;52.370;13.314;2022-12-11T14:59:46;-1.40;99.90
20973;DHT22;10645;52.370;13.314;2022-12-11T15:07:56;-1.50;99.90
20973;DHT22;10645;52.370;13.314;2022-12-11T15:10:29;-1.50;99.90
20973;DHT22;10645;52.370;13.314;2022-12-11T15:12:56;-1.50;99.90
20973;DHT22;10645;52.370;13.314;2022-12-11T15:15:31;-1.50;99.90
20973;DHT22;10645;52.370;13.314;2022-12-11T15:18:00;-1.50;99.90
20973;DHT22;10645;52.370;13.314;2022-12-11T15:20:29;-1.50;99.90
20973;DHT22;10645;52.370;13.314;2022-12-11T15:22:57;-1.50;99.90
20973;DHT22;10645;52.370;13.314;2022-12-11T15:25:27;-1.50;99.90
20973;DHT22;10645;52.370;13.314;2022-12-11T15:27:56;-1.50;99.90
20973;DHT22;10645;52.370;13.314;2022-12-11T15:33:18;-1.50;99.90
20973;DHT22;10645;52.370;13.314;2022-12-11T15:36:04;-1.50;99.90
20973;DHT22;10645;52.370;13.314;2022-12-11T15:38:38;-1.50;99.90
20973;DHT22;10645;52.370;13.314;2022-12-11T15:41:15;-1.50;99.90
20973;DHT22;10645;52.370;13.314;2022-12-11T15:43:43;-1.40;99.90
20973;DHT22;10645;52.370;13.314;2022-12-11T15:46:09;-1.40;99.90
20973;DHT22;10645;52.370;13.314;2022-12-11T15:48:35;-1.40;99.90
20973;DHT22;10645;52.370;13.314;2022-12-11T15:51:01;-1.50;99.90
20973;DHT22;10645;52.370;13.314;2022-12-11T15:53:28;-1.50;99.90
20973;DHT22;10645;52.370;13.314;2022-12-11T15:55:56;-1.50;99.90
20973;DHT22;10645;52.370;13.314;2022-12-11T15:58:23;-1.50;99.90
20973;DHT22;10645;52.370;13.314;2022-12-11T16:00:52;-1.50;99.90
20973;DHT22;10645;52.370;13.314;2022-12-11T16:03:20;-1.50;99.90
20973;DHT22;10645;52.370;13.314;2022-12-11T16:05:49;-1.50;99.90
20973;DHT22;10645;52.370;13.314;2022-12-11T16:08:19;-1.50;99.90
20973;DHT22;10645;52.370;13.314;2022-12-11T16:10:46;-1.40;99.90
20973;DHT22;10645;52.370;13.314;2022-12-11T16:13:13;-1.50;99.90
20973;DHT22;10645;52.370;13.314;2022-12-11T16:15:41;-1.50;99.90
20973;DHT22;10645;52.370;13.314;2022-12-11T16:18:14;-1.50;99.90
20973;DHT22;10645;52.370;13.314;2022-12-11T16:20:41;-1.40;99.90
20973;DHT22;10645;52.370;13.314;2022-12-11T16:23:07;-1.50;99.90
20973;DHT22;10645;52.370;13.314;2022-12-11T16:25:36;-1.40;99.90
20973;DHT22;10645;52.370;13.314;2022-12-11T16:28:04;-1.40;99.90
20973;DHT22;10645;52.370;13.314;2022-12-11T16:30:34;-1.40;99.90
20973;DHT22;10645;52.370;13.314;2022-12-11T16:33:00;-1.40;99.90
20973;DHT22;10645;52.370;13.314;2022-12-11T16:35:28;-1.40;99.90
20973;DHT22;10645;52.370;13.314;2022-12-11T16:37:54;-1.40;99.90
20973;DHT22;10645;52.370;13.314;2022-12-11T16:40:21;-1.40;99.90
20973;DHT22;10645;52.370;13.314;2022-12-11T16:42:47;-1.50;99.90